Time;durP1;ratioP1;P1;durP2;ratioP2;P2;SDS_P1;SDS_P2;PMS_P1;PMS_P2;Temp;Humidity;BMP_temperature;BMP_pressure;BME280_temperature;BME280_humidity;BME280_pressure;Samples;Min_cycle;Max_cycle;Signal;HPM_P1;HPM_P2
2022/05/06 00:01:35;;;;;;;13.27;12.48;;;;;;;;;;5061595;28;20063;-67
2022/05/06 00:04:02;;;;;;;14.05;13.25;;;;;;;;;;5053761;28;20031;-67
2022/05/06 00:06:29;;;;;;;11.60;10.90;;;;;;;;;;5052777;28;20040;-67
2022/05/06 00:08:55;;;;;;;12.73;11.93;;;;;;;;;;5056937;28;20049;-67
2022/05/06 00:11:20;;;;;;;13.10;12.20;;;;;;;;;;5053757;28;20064;-68
2022/05/06 00:13:45;;;;;;;14.30;13.35;;;;;;;;;;5053636;28;20044;-67
2022/05/06 00:16:11;;;;;;;15.25;14.35;;;;;;;;;;5054073;28;20450;-67
2022/05/06 00:18:36;;;;;;;11.95;11.25;;;;;;;;;;5054209;28;20584;-67
2022/05/06 00:21:01;;;;;;;11.75;11.05;;;;;;;;;;5050478;28;20125;-67
2022/05/06 00:23:28;;;;;;;11.93;11.13;;;;;;;;;;5053546;28;20032;-67
2022/05/06 00:25:53;;;;;;;11.52;10.77;;;;;;;;;;5053532;28;20101;-67
2022/05/06 00:28:19;;;;;;;12.75;11.98;;;;;;;;;;5054810;28;20033;-67
2022/05/06 00:30:44;;;;;;;12.73;11.93;;;;;;;;;;5055607;28;20040;-67
2022/05/06 00:33:09;;;;;;;14.32;13.50;;;;;;;;;;5052100;28;20059;-67
2022/05/06 00:35:36;;;;;;;11.48;10.77;;;;;;;;;;5053575;28;20047;-67
2022/05/06 00:38:03;;;;;;;10.88;10.18;;;;;;;;;;5052358;28;20170;-68
2022/05/06 00:40:28;;;;;;;11.50;10.77;;;;;;;;;;5049830;28;20041;-67
2022/05/06 00:42:55;;;;;;;12.05;11.25;;;;;;;;;;5050202;28;20094;-67
2022/05/06 00:45:21;;;;;;;10.90;10.20;;;;;;;;;;5054858;28;20052;-67
2022/05/06 00:47:46;;;;;;;8.35;7.78;;;;;;;;;;5054040;28;20060;-67
2022/05/06 00:50:12;;;;;;;9.20;8.60;;;;;;;;;;5052643;28;20410;-67
2022/05/06 00:52:37;;;;;;;8.20;7.60;;;;;;;;;;5052906;28;20553;-67
2022/05/06 00:55:04;;;;;;;9.15;8.45;;;;;;;;;;5049482;28;20037;-67
2022/05/06 00:57:30;;;;;;;9.95;9.15;;;;;;;;;;5050195;28;20029;-66
2022/05/06 01:02:40;;;;;;;7.75;7.25;;;;;;;;;;5053015;28;20028;-67
2022/05/06 01:05:07;;;;;;;8.38;7.78;;;;;;;;;;5050927;28;20037;-67
2022/05/06 01:07:33;;;;;;;8.68;8.07;;;;;;;;;;5048911;28;20521;-67
2022/05/06 01:09:59;;;;;;;9.82;9.23;;;;;;;;;;5053631;28;20017;-67
2022/05/06 01:12:24;;;;;;;9.80;9.05;;;;;;;;;;5044391;28;20028;-67
2022/05/06 01:14:49;;;;;;;9.15;8.55;;;;;;;;;;5062486;28;21541;-66
2022/05/06 01:17:16;;;;;;;8.88;8.27;;;;;;;;;;5050571;28;20589;-67
2022/05/06 01:19:41;;;;;;;10.73;9.93;;;;;;;;;;5049636;28;20029;-67
2022/05/06 01:22:07;;;;;;;9.88;9.25;;;;;;;;;;5051920;28;20480;-67
2022/05/06 01:24:32;;;;;;;8.93;8.32;;;;;;;;;;5052307;28;20092;-67
2022/05/06 01:27:08;;;;;;;8.20;7.60;;;;;;;;;;5051021;28;20052;-67
2022/05/06 01:29:36;;;;;;;7.53;6.97;;;;;;;;;;5049560;28;20045;-67
2022/05/06 01:32:01;;;;;;;8.32;7.72;;;;;;;;;;5049918;28;20489;-67
2022/05/06 01:34:32;;;;;;;7.53;7.03;;;;;;;;;;5049784;28;20045;-67
2022/05/06 01:37:01;;;;;;;8.45;7.85;;;;;;;;;;5051293;28;20036;-68
2022/05/06 01:39:32;;;;;;;8.95;8.25;;;;;;;;;;5049842;28;20662;-67
2022/05/06 01:42:03;;;;;;;8.10;7.60;;;;;;;;;;5050785;28;20117;-68
2022/05/06 01:44:31;;;;;;;8.15;7.65;;;;;;;;;;5050611;28;20029;-66
2022/05/06 01:47:02;;;;;;;8.80;8.15;;;;;;;;;;5050314;28;20038;-66
2022/05/06 01:49:30;;;;;;;7.95;7.45;;;;;;;;;;5049592;28;20119;-66
2022/05/06 01:51:57;;;;;;;8.48;7.93;;;;;;;;;;5058479;28;20415;-66
2022/05/06 01:54:23;;;;;;;8.70;8.02;;;;;;;;;;5053397;28;20044;-67
2022/05/06 01:56:49;;;;;;;8.75;8.15;;;;;;;;;;5059753;28;20036;-66
2022/05/06 01:59:14;;;;;;;7.65;7.15;;;;;;;;;;5048789;28;20041;-67
2022/05/06 02:01:39;;;;;;;8.68;8.07;;;;;;;;;;5049537;28;20048;-67
2022/05/06 02:06:49;;;;;;;8.73;8.13;;;;;;;;;;5054115;28;20025;-67
2022/05/06 02:09:16;;;;;;;8.95;8.35;;;;;;;;;;5053731;28;20472;-67
2022/05/06 02:11:42;;;;;;;8.25;7.70;;;;;;;;;;5069986;28;20052;-66
2022/05/06 02:14:08;;;;;;;8.52;7.93;;;;;;;;;;5063305;28;20064;-66
2022/05/06 02:16:33;;;;;;;8.90;8.30;;;;;;;;;;5052517;28;20119;-66
2022/05/06 02:18:59;;;;;;;9.75;9.07;;;;;;;;;;5051616;28;20563;-67
2022/05/06 02:21:24;;;;;;;8.35;7.75;;;;;;;;;;5053298;28;20040;-67
2022/05/06 02:23:50;;;;;;;9.45;8.82;;;;;;;;;;5054771;28;20028;-66
2022/05/06 02:26:15;;;;;;;8.30;7.72;;;;;;;;;;5053939;28;20025;-67
2022/05/06 02:28:40;;;;;;;8.35;7.75;;;;;;;;;;5074118;28;20061;-67
2022/05/06 02:33:50;;;;;;;7.75;7.25;;;;;;;;;;5054391;28;20468;-66
2022/05/06 02:36:16;;;;;;;7.72;7.22;;;;;;;;;;5053407;28;20099;-66
2022/05/06 02:38:41;;;;;;;8.00;7.40;;;;;;;;;;5052851;28;20089;-65
2022/05/06 02:41:07;;;;;;;7.95;7.45;;;;;;;;;;5039958;28;20036;-66
2022/05/06 02:43:32;;;;;;;8.10;7.55;;;;;;;;;;5053605;28;20024;-66
2022/05/06 02:45:57;;;;;;;8.15;7.57;;;;;;;;;;5070985;28;20041;-66
2022/05/06 02:48:24;;;;;;;7.78;7.28;;;;;;;;;;5054256;28;20059;-66
2022/05/06 02:50:49;;;;;;;7.53;7.03;;;;;;;;;;5055826;28;20032;-66
2022/05/06 02:53:14;;;;;;;7.53;7.03;;;;;;;;;;5050442;28;20029;-66
2022/05/06 02:55:40;;;;;;;7.65;7.15;;;;;;;;;;5054372;28;20104;-66
2022/05/06 02:58:06;;;;;;;8.48;7.88;;;;;;;;;;5052433;28;20090;-66
2022/05/06 03:00:31;;;;;;;7.43;6.93;;;;;;;;;;5055827;28;20037;-66
2022/05/06 03:02:57;;;;;;;8.52;7.97;;;;;;;;;;5060430;28;20036;-66
2022/05/06 03:05:23;;;;;;;8.07;7.38;;;;;;;;;;5070954;28;20108;-66
2022/05/06 03:07:49;;;;;;;7.63;7.05;;;;;;;;;;5054815;28;20040;-66
2022/05/06 03:10:15;;;;;;;6.97;6.47;;;;;;;;;;5054203;28;20060;-66
2022/05/06 03:12:43;;;;;;;6.32;5.93;;;;;;;;;;5055797;28;20124;-66
2022/05/06 03:15:09;;;;;;;7.53;7.03;;;;;;;;;;5050908;28;20094;-66
2022/05/06 03:17:35;;;;;;;7.60;7.10;;;;;;;;;;5054227;28;20044;-66
2022/05/06 03:20:01;;;;;;;8.32;7.72;;;;;;;;;;5049219;28;20036;-66
2022/05/06 03:22:27;;;;;;;7.70;7.15;;;;;;;;;;5052950;28;20458;-66
2022/05/06 03:24:52;;;;;;;6.75;6.25;;;;;;;;;;5062318;28;20025;-67
2022/05/06 03:30:04;;;;;;;7.03;6.53;;;;;;;;;;5052265;28;20528;-66
2022/05/06 03:32:31;;;;;;;7.88;7.32;;;;;;;;;;5050059;28;20083;-66
2022/05/06 03:34:57;;;;;;;7.25;6.75;;;;;;;;;;5051943;28;20035;-66
2022/05/06 03:37:22;;;;;;;6.82;6.32;;;;;;;;;;5054576;28;20124;-66
2022/05/06 03:39:48;;;;;;;7.43;6.93;;;;;;;;;;5051002;28;20036;-66
2022/05/06 03:42:13;;;;;;;7.70;7.20;;;;;;;;;;5056618;28;20032;-66
2022/05/06 03:44:39;;;;;;;8.90;8.30;;;;;;;;;;5062508;28;20029;-66
2022/05/06 03:47:04;;;;;;;10.05;9.20;;;;;;;;;;5049509;28;20724;-66
2022/05/06 03:49:30;;;;;;;7.95;7.45;;;;;;;;;;5053096;28;20618;-66
2022/05/06 03:51:55;;;;;;;8.00;7.43;;;;;;;;;;5050140;28;20024;-66
2022/05/06 03:54:20;;;;;;;8.43;7.82;;;;;;;;;;5053120;28;20353;-66
2022/05/06 03:56:46;;;;;;;7.80;7.25;;;;;;;;;;5056974;28;20021;-66
2022/05/06 03:59:11;;;;;;;8.70;8.00;;;;;;;;;;5050973;28;20650;-65
2022/05/06 04:01:37;;;;;;;6.93;6.43;;;;;;;;;;5067766;28;20033;-65
2022/05/06 04:04:02;;;;;;;7.63;7.13;;;;;;;;;;5051654;28;20668;-65
2022/05/06 04:06:28;;;;;;;7.63;7.13;;;;;;;;;;5053578;28;20461;-65
2022/05/06 04:08:54;;;;;;;8.30;7.57;;;;;;;;;;5062482;28;20067;-65
2022/05/06 04:11:20;;;;;;;7.68;7.18;;;;;;;;;;5053710;28;20032;-65
2022/05/06 04:13:46;;;;;;;7.60;7.10;;;;;;;;;;5050224;28;20508;-65
2022/05/06 04:16:12;;;;;;;7.05;6.55;;;;;;;;;;5052489;28;20098;-65
2022/05/06 04:18:38;;;;;;;6.80;6.30;;;;;;;;;;5053732;28;20983;-65
2022/05/06 04:23:47;;;;;;;7.00;6.50;;;;;;;;;;5052760;28;20029;-65
2022/05/06 04:26:13;;;;;;;7.38;6.88;;;;;;;;;;5052364;28;20032;-65
2022/05/06 04:28:39;;;;;;;6.55;6.05;;;;;;;;;;5051401;28;20578;-65
2022/05/06 04:31:05;;;;;;;5.82;5.43;;;;;;;;;;5053058;28;20060;-65
2022/05/06 04:33:31;;;;;;;6.50;6.00;;;;;;;;;;5050647;28;20637;-65
2022/05/06 04:35:57;;;;;;;7.70;7.13;;;;;;;;;;5052395;28;20116;-64
2022/05/06 04:38:23;;;;;;;7.45;6.88;;;;;;;;;;5050526;28;20049;-64
2022/05/06 04:40:50;;;;;;;6.45;5.85;;;;;;;;;;5051805;28;20064;-65
2022/05/06 04:43:21;;;;;;;6.55;6.07;;;;;;;;;;5054052;28;20037;-65
2022/05/06 04:45:48;;;;;;;6.97;6.38;;;;;;;;;;5051610;28;20041;-65
2022/05/06 04:48:13;;;;;;;7.70;7.10;;;;;;;;;;5053134;28;20033;-65
2022/05/06 04:50:40;;;;;;;7.13;6.63;;;;;;;;;;5052006;28;20047;-65
2022/05/06 04:53:07;;;;;;;7.50;7.00;;;;;;;;;;5053848;28;20059;-65
2022/05/06 04:55:37;;;;;;;7.03;6.43;;;;;;;;;;5050631;28;20064;-65
2022/05/06 04:58:03;;;;;;;6.75;6.25;;;;;;;;;;5050322;28;20115;-65
2022/05/06 05:00:29;;;;;;;7.63;7.13;;;;;;;;;;5066332;28;20123;-65
2022/05/06 05:02:55;;;;;;;8.52;7.93;;;;;;;;;;5050645;28;20158;-65
2022/05/06 05:05:20;;;;;;;8.00;7.50;;;;;;;;;;5050379;28;20032;-64
2022/05/06 05:07:46;;;;;;;7.25;6.75;;;;;;;;;;5050802;28;20025;-65
2022/05/06 05:10:11;;;;;;;8.38;7.80;;;;;;;;;;5048977;28;20909;-64
2022/05/06 05:12:37;;;;;;;8.90;8.18;;;;;;;;;;5050212;28;20840;-65
2022/05/06 05:15:03;;;;;;;8.15;7.55;;;;;;;;;;5049809;28;20132;-65
2022/05/06 05:17:28;;;;;;;7.68;7.18;;;;;;;;;;5050963;28;20347;-65
2022/05/06 05:19:54;;;;;;;10.20;9.50;;;;;;;;;;5053162;28;20036;-65
2022/05/06 05:22:20;;;;;;;12.32;11.50;;;;;;;;;;5053534;28;20043;-66
2022/05/06 05:24:46;;;;;;;9.35;8.75;;;;;;;;;;5054833;28;20361;-66
2022/05/06 05:27:13;;;;;;;8.25;7.57;;;;;;;;;;5051207;28;20720;-64
2022/05/06 05:29:39;;;;;;;8.20;7.70;;;;;;;;;;5052430;28;20098;-65
2022/05/06 05:32:06;;;;;;;9.57;8.95;;;;;;;;;;5048753;28;20029;-66
2022/05/06 05:34:31;;;;;;;10.38;9.73;;;;;;;;;;5047320;28;20029;-65
2022/05/06 05:36:56;;;;;;;9.07;8.48;;;;;;;;;;5049442;28;20490;-64
2022/05/06 05:39:22;;;;;;;9.35;8.75;;;;;;;;;;5053313;28;20476;-65
2022/05/06 05:41:47;;;;;;;11.38;10.68;;;;;;;;;;5048590;28;20033;-64
2022/05/06 05:49:41;;;;;;;11.18;10.20;;;;;;;;;;5048645;28;20086;-64
2022/05/06 05:52:06;;;;;;;8.85;8.27;;;;;;;;;;5051524;28;20029;-64
2022/05/06 05:54:32;;;;;;;6.60;6.10;;;;;;;;;;5052308;28;20098;-65
2022/05/06 05:56:57;;;;;;;8.40;7.88;;;;;;;;;;5048193;28;20422;-64
2022/05/06 05:59:23;;;;;;;7.05;6.55;;;;;;;;;;5050322;28;20064;-64
2022/05/06 06:01:49;;;;;;;7.20;6.70;;;;;;;;;;5050479;28;20480;-64
2022/05/06 06:04:15;;;;;;;6.38;5.97;;;;;;;;;;5049096;28;20402;-64
2022/05/06 06:06:41;;;;;;;9.50;8.05;;;;;;;;;;5052744;28;20120;-64
2022/05/06 06:09:08;;;;;;;5.90;5.50;;;;;;;;;;5054208;28;20041;-65
2022/05/06 06:11:33;;;;;;;7.03;6.53;;;;;;;;;;5053189;28;20028;-64
2022/05/06 06:13:58;;;;;;;6.85;6.35;;;;;;;;;;5057235;28;20033;-64
2022/05/06 06:16:24;;;;;;;7.65;7.15;;;;;;;;;;5048342;28;20033;-63
2022/05/06 06:18:49;;;;;;;7.47;6.97;;;;;;;;;;5049685;28;20045;-64
2022/05/06 06:21:14;;;;;;;9.23;8.63;;;;;;;;;;5053002;28;20024;-67
2022/05/06 06:23:40;;;;;;;6.70;6.20;;;;;;;;;;5048959;28;20036;-65
2022/05/06 06:26:05;;;;;;;8.25;7.75;;;;;;;;;;5049626;28;20476;-65
2022/05/06 06:28:31;;;;;;;8.15;7.65;;;;;;;;;;5052920;28;20032;-66
2022/05/06 06:30:56;;;;;;;9.18;8.57;;;;;;;;;;5048572;28;20032;-66
2022/05/06 06:33:21;;;;;;;10.73;10.02;;;;;;;;;;5052297;28;20033;-66
2022/05/06 06:35:47;;;;;;;14.57;13.77;;;;;;;;;;5050646;28;20033;-67
2022/05/06 06:38:12;;;;;;;13.85;13.05;;;;;;;;;;5052443;28;20034;-66
2022/05/06 06:40:38;;;;;;;13.15;12.35;;;;;;;;;;5049569;28;20028;-66
2022/05/06 06:43:04;;;;;;;12.20;11.48;;;;;;;;;;5049160;28;20044;-67
2022/05/06 06:45:31;;;;;;;9.82;9.23;;;;;;;;;;5050586;28;20060;-66
2022/05/06 06:47:59;;;;;;;16.63;15.68;;;;;;;;;;5060417;28;20085;-66
2022/05/06 06:50:25;;;;;;;18.15;16.98;;;;;;;;;;5051976;28;20044;-67
2022/05/06 06:52:51;;;;;;;20.75;19.60;;;;;;;;;;5050715;28;20047;-68
2022/05/06 06:55:17;;;;;;;18.35;17.33;;;;;;;;;;5061593;28;20094;-68
2022/05/06 06:57:42;;;;;;;22.35;20.83;;;;;;;;;;5055074;28;20041;-68
2022/05/06 07:00:09;;;;;;;14.43;13.63;;;;;;;;;;5054350;28;20051;-68
2022/05/06 07:02:39;;;;;;;12.77;12.05;;;;;;;;;;5056704;28;20033;-67
2022/05/06 07:05:05;;;;;;;15.73;14.77;;;;;;;;;;5051261;28;20618;-68
2022/05/06 07:12:58;;;;;;;18.38;17.38;;;;;;;;;;5069540;28;20098;-67
2022/05/06 07:15:24;;;;;;;20.23;19.13;;;;;;;;;;5053514;28;20451;-67
2022/05/06 07:17:49;;;;;;;21.98;20.77;;;;;;;;;;5054202;28;20421;-68
2022/05/06 07:20:15;;;;;;;22.38;21.17;;;;;;;;;;5052884;28;20048;-68
2022/05/06 07:22:42;;;;;;;18.00;17.00;;;;;;;;;;5057148;28;20033;-68
2022/05/06 07:25:08;;;;;;;17.65;16.65;;;;;;;;;;5054294;28;20036;-68
2022/05/06 07:27:36;;;;;;;16.13;15.23;;;;;;;;;;5069497;28;20119;-67
2022/05/06 07:30:04;;;;;;;18.45;17.23;;;;;;;;;;5053081;28;20051;-68
2022/05/06 07:32:30;;;;;;;16.92;16.02;;;;;;;;;;5057211;28;20041;-68
2022/05/06 07:34:56;;;;;;;17.75;16.75;;;;;;;;;;5055726;28;20454;-68
2022/05/06 07:37:21;;;;;;;13.98;13.18;;;;;;;;;;5055385;28;20044;-68
2022/05/06 07:39:46;;;;;;;14.55;13.68;;;;;;;;;;5058673;28;20060;-67
2022/05/06 07:42:12;;;;;;;13.32;12.52;;;;;;;;;;5051374;28;20545;-67
2022/05/06 07:44:38;;;;;;;13.77;12.98;;;;;;;;;;5055350;28;20055;-62
2022/05/06 07:47:04;;;;;;;21.88;20.67;;;;;;;;;;5054644;28;20090;-63
2022/05/06 07:49:29;;;;;;;13.95;13.15;;;;;;;;;;5062646;28;20064;-63
2022/05/06 07:51:54;;;;;;;19.33;18.23;;;;;;;;;;5051703;28;20448;-67
2022/05/06 07:54:20;;;;;;;13.40;12.60;;;;;;;;;;5049646;28;20062;-68
2022/05/06 07:56:45;;;;;;;16.67;15.77;;;;;;;;;;5050527;28;20464;-67
2022/05/06 07:59:11;;;;;;;19.35;18.25;;;;;;;;;;5052968;28;20064;-69
2022/05/06 08:04:47;;;;;;;15.60;14.70;;;;;;;;;;5046851;28;20040;-67
2022/05/06 08:07:13;;;;;;;11.15;10.15;;;;;;;;;;5048072;28;20029;-68
2022/05/06 08:09:38;;;;;;;12.70;12.00;;;;;;;;;;5049483;28;20509;-68
2022/05/06 08:12:04;;;;;;;12.25;11.35;;;;;;;;;;5049689;28;20040;-63
2022/05/06 08:14:29;;;;;;;18.90;17.88;;;;;;;;;;5050883;28;20109;-67
2022/05/06 08:16:55;;;;;;;8.10;7.60;;;;;;;;;;5049565;28;20041;-67
2022/05/06 08:19:20;;;;;;;10.43;9.82;;;;;;;;;;5056786;28;20027;-67
2022/05/06 08:21:46;;;;;;;11.70;11.00;;;;;;;;;;5047598;28;20025;-63
2022/05/06 08:24:12;;;;;;;10.40;9.77;;;;;;;;;;5051055;28;20038;-67
2022/05/06 08:26:37;;;;;;;11.57;10.88;;;;;;;;;;5054726;28;20501;-67
2022/05/06 08:29:03;;;;;;;9.43;8.82;;;;;;;;;;5053264;28;20047;-68
2022/05/06 08:31:31;;;;;;;10.25;9.65;;;;;;;;;;5053950;28;20502;-67
2022/05/06 08:33:57;;;;;;;8.18;7.65;;;;;;;;;;5049735;28;20110;-67
2022/05/06 08:36:23;;;;;;;9.27;8.68;;;;;;;;;;5054714;28;20036;-67
2022/05/06 08:38:49;;;;;;;8.45;7.95;;;;;;;;;;5052932;28;20028;-67
2022/05/06 08:41:15;;;;;;;10.15;9.55;;;;;;;;;;5049908;28;20582;-67
2022/05/06 08:43:40;;;;;;;12.98;12.20;;;;;;;;;;5055394;28;20048;-67
2022/05/06 08:51:38;;;;;;;13.20;12.40;;;;;;;;;;5052985;28;20513;-65
2022/05/06 08:54:04;;;;;;;12.05;11.35;;;;;;;;;;5052364;28;20029;-66
2022/05/06 08:56:31;;;;;;;12.70;12.00;;;;;;;;;;5056225;28;20059;-67
2022/05/06 08:58:56;;;;;;;13.90;13.10;;;;;;;;;;5048874;28;20098;-65
2022/05/06 09:01:22;;;;;;;11.88;11.18;;;;;;;;;;5060897;28;20040;-65
2022/05/06 09:03:48;;;;;;;13.80;13.00;;;;;;;;;;5052272;28;20455;-65
2022/05/06 09:06:26;;;;;;;13.00;12.20;;;;;;;;;;5060846;28;20043;-65
2022/05/06 09:08:53;;;;;;;13.32;12.52;;;;;;;;;;5058363;28;20028;-64
2022/05/06 09:12:40;;;;;;;14.40;13.50;;;;;;;;;;5050537;28;20036;-65
2022/05/06 09:14:07;;;;;;;13.35;12.55;;;;;;;;;;5052349;28;20474;-64
2022/05/06 09:16:42;;;;;;;14.30;13.40;;;;;;;;;;5050152;28;20036;-64
2022/05/06 09:19:16;;;;;;;14.38;13.57;;;;;;;;;;5047666;28;20510;-64
2022/05/06 09:22:06;;;;;;;15.50;14.60;;;;;;;;;;5051167;28;20104;-64
2022/05/06 09:24:35;;;;;;;9.50;8.90;;;;;;;;;;5053619;28;20626;-65
2022/05/06 09:27:09;;;;;;;9.60;9.00;;;;;;;;;;5054230;28;20122;-64
2022/05/06 09:29:37;;;;;;;13.98;13.18;;;;;;;;;;5052866;28;20040;-67
2022/05/06 09:32:19;;;;;;;10.30;9.70;;;;;;;;;;5052426;28;20107;-66
2022/05/06 09:34:53;;;;;;;8.68;8.15;;;;;;;;;;5054288;28;20131;-67
2022/05/06 09:37:35;;;;;;;10.07;9.45;;;;;;;;;;5054681;28;20033;-68
2022/05/06 09:40:14;;;;;;;11.15;10.45;;;;;;;;;;5052550;28;20043;-68
2022/05/06 09:42:40;;;;;;;12.40;11.70;;;;;;;;;;5049625;28;20461;-67
2022/05/06 09:45:07;;;;;;;13.05;12.27;;;;;;;;;;5050616;28;20029;-67
2022/05/06 09:47:33;;;;;;;8.52;7.93;;;;;;;;;;5055104;28;20087;-68
2022/05/06 09:49:59;;;;;;;11.80;11.10;;;;;;;;;;5051647;28;20036;-69
2022/05/06 09:52:25;;;;;;;8.77;8.18;;;;;;;;;;5054689;28;20012;-69
2022/05/06 09:54:52;;;;;;;13.30;12.40;;;;;;;;;;5052998;28;20043;-64
2022/05/06 09:57:21;;;;;;;10.20;9.50;;;;;;;;;;5050566;28;20098;-64
2022/05/06 09:59:47;;;;;;;10.63;9.98;;;;;;;;;;5051428;28;20087;-65
2022/05/06 10:02:13;;;;;;;21.33;20.15;;;;;;;;;;5051002;28;20077;-64
2022/05/06 10:04:39;;;;;;;14.25;13.45;;;;;;;;;;5052921;28;20033;-65
2022/05/06 10:07:12;;;;;;;9.27;8.68;;;;;;;;;;5052696;28;20044;-64
2022/05/06 10:09:49;;;;;;;8.32;7.82;;;;;;;;;;5051981;28;20405;-64
2022/05/06 10:12:17;;;;;;;12.48;11.77;;;;;;;;;;5053951;28;20035;-64
2022/05/06 10:14:44;;;;;;;17.45;16.45;;;;;;;;;;5049406;28;20037;-64
2022/05/06 10:17:09;;;;;;;12.10;11.27;;;;;;;;;;5051382;28;20120;-64
2022/05/06 10:19:38;;;;;;;9.02;8.43;;;;;;;;;;5048759;28;20252;-63
2022/05/06 10:22:04;;;;;;;8.85;8.25;;;;;;;;;;5052558;28;20627;-63
2022/05/06 10:24:43;;;;;;;12.15;11.45;;;;;;;;;;5051123;28;20025;-64
2022/05/06 10:32:25;;;;;;;9.85;9.25;;;;;;;;;;5051143;28;20033;-64
2022/05/06 10:34:05;;;;;;;11.43;10.73;;;;;;;;;;5086730;28;20047;-65
2022/05/06 10:36:43;;;;;;;10.48;9.77;;;;;;;;;;5055887;28;20079;-65
2022/05/06 10:39:25;;;;;;;15.15;13.75;;;;;;;;;;5056833;28;20107;-65
2022/05/06 10:42:09;;;;;;;29.40;27.88;;;;;;;;;;5054159;28;20033;-64
2022/05/06 10:44:36;;;;;;;12.15;11.38;;;;;;;;;;5055049;28;20092;-69
2022/05/06 10:47:03;;;;;;;24.23;22.92;;;;;;;;;;5054168;28;20040;-70
2022/05/06 10:49:34;;;;;;;14.88;14.00;;;;;;;;;;5051652;28;20195;-68
2022/05/06 10:52:15;;;;;;;19.00;17.90;;;;;;;;;;5053395;28;20119;-72
2022/05/06 10:55:00;;;;;;;13.02;12.25;;;;;;;;;;5054538;28;20187;-74
2022/05/06 10:57:28;;;;;;;18.15;17.15;;;;;;;;;;5054598;28;20039;-71
2022/05/06 10:59:54;;;;;;;15.57;14.68;;;;;;;;;;5056536;28;20109;-72
2022/05/06 11:02:21;;;;;;;12.95;12.15;;;;;;;;;;5055451;28;20490;-73
2022/05/06 11:04:55;;;;;;;16.75;15.85;;;;;;;;;;5056822;28;20029;-73
2022/05/06 11:07:20;;;;;;;34.95;33.15;;;;;;;;;;5054477;28;20037;-74
2022/05/06 11:09:46;;;;;;;31.83;30.17;;;;;;;;;;5054014;28;20385;-72
2022/05/06 11:12:33;;;;;;;24.52;23.05;;;;;;;;;;5056445;28;20190;-68
2022/05/06 11:14:59;;;;;;;26.80;25.40;;;;;;;;;;5054192;28;20126;-70
2022/05/06 11:17:24;;;;;;;34.97;33.17;;;;;;;;;;5053004;28;20040;-74
2022/05/06 11:19:56;;;;;;;35.78;33.97;;;;;;;;;;5054195;28;20036;-67
2022/05/06 11:22:23;;;;;;;45.63;43.28;;;;;;;;;;5055998;28;20029;-63
2022/05/06 11:24:48;;;;;;;35.80;34.00;;;;;;;;;;5051728;28;20028;-65
2022/05/06 11:27:15;;;;;;;17.08;16.15;;;;;;;;;;5052899;28;20036;-65
2022/05/06 11:29:56;;;;;;;34.65;32.85;;;;;;;;;;5056081;28;20028;-65
2022/05/06 11:32:27;;;;;;;15.35;14.45;;;;;;;;;;5049974;28;20059;-72
2022/05/06 11:35:02;;;;;;;17.30;16.33;;;;;;;;;;5055257;28;20039;-64
2022/05/06 11:37:33;;;;;;;18.48;17.45;;;;;;;;;;5053731;28;20055;-70
2022/05/06 11:42:43;;;;;;;34.22;32.42;;;;;;;;;;5054089;28;20033;-71
2022/05/06 11:48:05;;;;;;;61.00;57.88;;;;;;;;;;5058141;28;20045;-68
2022/05/06 11:50:35;;;;;;;67.72;64.32;;;;;;;;;;5053492;28;20028;-64
2022/05/06 11:53:02;;;;;;;56.08;53.25;;;;;;;;;;5052787;28;20045;-70
2022/05/06 11:55:29;;;;;;;70.22;66.70;;;;;;;;;;5050198;28;20031;-63
2022/05/06 11:57:56;;;;;;;65.35;62.08;;;;;;;;;;5049705;28;20199;-64
2022/05/06 12:00:22;;;;;;;35.67;33.85;;;;;;;;;;5052175;28;20045;-71
2022/05/06 12:02:48;;;;;;;33.88;32.05;;;;;;;;;;5051392;28;20048;-63
2022/05/06 12:05:15;;;;;;;73.93;70.22;;;;;;;;;;5057026;28;20041;-64
2022/05/06 12:07:48;;;;;;;81.18;77.13;;;;;;;;;;5051941;28;20098;-64
2022/05/06 12:10:29;;;;;;;49.20;46.70;;;;;;;;;;5054981;28;20044;-63
2022/05/06 12:13:00;;;;;;;75.13;71.40;;;;;;;;;;5058392;28;20024;-64
2022/05/06 12:15:39;;;;;;;86.00;81.78;;;;;;;;;;5052860;28;20040;-65
2022/05/06 12:18:06;;;;;;;85.90;81.63;;;;;;;;;;5051591;28;20112;-65
2022/05/06 12:20:43;;;;;;;99.68;94.75;;;;;;;;;;5053921;28;20124;-65
2022/05/06 12:23:12;;;;;;;94.43;89.72;;;;;;;;;;5051887;28;20074;-63
2022/05/06 12:25:41;;;;;;;87.13;82.82;;;;;;;;;;5051583;28;20915;-63
2022/05/06 12:28:19;;;;;;;88.25;83.90;;;;;;;;;;5053495;28;20024;-62
2022/05/06 12:30:45;;;;;;;85.80;81.38;;;;;;;;;;5051058;28;20533;-62
2022/05/06 12:33:14;;;;;;;87.55;83.25;;;;;;;;;;5052877;28;20103;-70
2022/05/06 12:35:59;;;;;;;76.03;72.25;;;;;;;;;;5053699;28;20033;-71
2022/05/06 12:38:44;;;;;;;85.35;81.15;;;;;;;;;;5052765;28;20108;-67
2022/05/06 12:41:19;;;;;;;84.55;80.32;;;;;;;;;;5052798;28;20029;-69
2022/05/06 12:43:45;;;;;;;93.22;88.65;;;;;;;;;;5055209;28;20063;-70
2022/05/06 12:46:11;;;;;;;74.65;70.95;;;;;;;;;;5052186;28;20464;-68
2022/05/06 12:51:20;;;;;;;67.65;64.28;;;;;;;;;;5053509;28;20054;-62
2022/05/06 12:53:45;;;;;;;79.97;76.00;;;;;;;;;;5053035;28;20036;-62
2022/05/06 12:56:18;;;;;;;55.47;52.70;;;;;;;;;;5050738;28;20052;-62
2022/05/06 12:58:44;;;;;;;61.08;58.03;;;;;;;;;;5051919;28;20053;-61
2022/05/06 13:01:09;;;;;;;48.67;46.20;;;;;;;;;;5050129;28;20067;-69
2022/05/06 13:03:35;;;;;;;68.60;65.18;;;;;;;;;;5051920;28;20037;-69
2022/05/06 13:06:01;;;;;;;92.60;88.05;;;;;;;;;;5052628;28;20086;-70
2022/05/06 13:08:27;;;;;;;94.00;89.38;;;;;;;;;;5050176;28;20039;-70
2022/05/06 13:10:52;;;;;;;49.67;47.13;;;;;;;;;;5056787;28;20082;-68
2022/05/06 13:13:18;;;;;;;93.55;88.93;;;;;;;;;;5053111;28;20473;-61
2022/05/06 13:15:43;;;;;;;85.35;81.10;;;;;;;;;;5052738;28;20033;-62
2022/05/06 13:18:09;;;;;;;50.42;47.67;;;;;;;;;;5059576;28;20032;-68
2022/05/06 13:20:34;;;;;;;87.00;82.70;;;;;;;;;;5051284;28;20056;-62
2022/05/06 13:23:00;;;;;;;72.68;69.03;;;;;;;;;;5048225;28;20060;-62
2022/05/06 13:25:26;;;;;;;65.25;61.95;;;;;;;;;;5051745;28;20035;-61
2022/05/06 13:27:51;;;;;;;45.88;43.55;;;;;;;;;;5053881;28;20028;-61
2022/05/06 13:30:16;;;;;;;61.33;58.28;;;;;;;;;;5052544;28;20106;-62
2022/05/06 13:32:43;;;;;;;31.17;29.55;;;;;;;;;;5049391;28;20035;-60
2022/05/06 13:35:09;;;;;;;28.55;27.05;;;;;;;;;;5050592;28;20059;-60
2022/05/06 13:37:35;;;;;;;50.40;47.85;;;;;;;;;;5050413;28;20115;-60
2022/05/06 13:40:00;;;;;;;39.78;37.78;;;;;;;;;;5049862;28;20033;-60
2022/05/06 13:42:26;;;;;;;36.50;34.60;;;;;;;;;;5051364;28;20033;-59
2022/05/06 13:44:51;;;;;;;41.17;39.08;;;;;;;;;;5050831;28;20017;-60
2022/05/06 13:47:16;;;;;;;37.72;35.83;;;;;;;;;;5051521;28;20061;-59
2022/05/06 13:49:43;;;;;;;29.77;28.23;;;;;;;;;;5049603;28;20083;-59
2022/05/06 13:52:09;;;;;;;31.92;30.27;;;;;;;;;;5053216;28;20048;-59
2022/05/06 13:54:34;;;;;;;33.85;32.08;;;;;;;;;;5053277;28;20029;-60
2022/05/06 13:59:44;;;;;;;32.75;31.05;;;;;;;;;;5051308;28;20041;-60
2022/05/06 14:02:10;;;;;;;78.35;74.50;;;;;;;;;;5047648;28;20037;-60
2022/05/06 14:04:35;;;;;;;75.32;71.55;;;;;;;;;;5054559;28;20035;-60
2022/05/06 14:07:01;;;;;;;59.17;56.20;;;;;;;;;;5054780;28;20029;-60
2022/05/06 14:09:27;;;;;;;34.38;32.50;;;;;;;;;;5053031;28;20416;-60
2022/05/06 14:11:52;;;;;;;40.75;38.63;;;;;;;;;;5053778;28;20031;-61
2022/05/06 14:14:18;;;;;;;40.95;38.88;;;;;;;;;;5054844;28;20040;-61
2022/05/06 14:16:44;;;;;;;28.38;26.90;;;;;;;;;;5054435;28;20078;-60
2022/05/06 14:19:09;;;;;;;27.90;26.42;;;;;;;;;;5055655;28;20037;-60
2022/05/06 14:21:35;;;;;;;30.92;29.30;;;;;;;;;;5054666;28;20021;-61
2022/05/06 14:24:01;;;;;;;38.97;36.97;;;;;;;;;;5055450;28;20103;-61
2022/05/06 14:26:27;;;;;;;38.20;36.28;;;;;;;;;;5055432;28;20104;-60
2022/05/06 14:28:53;;;;;;;44.10;41.80;;;;;;;;;;5054677;28;20036;-60
2022/05/06 14:31:19;;;;;;;34.22;32.45;;;;;;;;;;5052371;28;20021;-60
2022/05/06 14:33:44;;;;;;;37.92;36.00;;;;;;;;;;5054549;28;20028;-60
2022/05/06 14:36:10;;;;;;;43.55;41.33;;;;;;;;;;5053553;28;20068;-60
2022/05/06 14:38:35;;;;;;;38.00;36.05;;;;;;;;;;5052619;28;20121;-60
2022/05/06 14:41:01;;;;;;;38.30;36.33;;;;;;;;;;5054303;28;20041;-60
2022/05/06 14:43:26;;;;;;;35.78;33.92;;;;;;;;;;5056257;28;20040;-61
2022/05/06 14:45:51;;;;;;;36.85;34.97;;;;;;;;;;5054117;28;20029;-60
2022/05/06 14:48:17;;;;;;;52.50;49.45;;;;;;;;;;5052402;28;20123;-61
2022/05/06 14:50:42;;;;;;;45.65;43.35;;;;;;;;;;5055201;28;20035;-61
2022/05/06 14:53:08;;;;;;;41.03;38.90;;;;;;;;;;5054763;28;20086;-61
2022/05/06 14:55:34;;;;;;;39.50;37.53;;;;;;;;;;5052227;28;20359;-60
2022/05/06 14:58:00;;;;;;;37.08;35.17;;;;;;;;;;5056065;28;20619;-60
2022/05/06 15:00:25;;;;;;;40.58;38.50;;;;;;;;;;5052814;28;20064;-60
2022/05/06 15:02:51;;;;;;;36.47;34.58;;;;;;;;;;5051622;28;20029;-61
2022/05/06 15:05:16;;;;;;;39.95;37.92;;;;;;;;;;5054394;28;20092;-61
2022/05/06 15:07:42;;;;;;;31.08;29.48;;;;;;;;;;5053974;28;20116;-61
2022/05/06 15:10:08;;;;;;;34.53;32.75;;;;;;;;;;5050888;28;20119;-61
2022/05/06 15:12:34;;;;;;;30.33;28.73;;;;;;;;;;5055136;28;20617;-61
2022/05/06 15:14:59;;;;;;;38.42;36.45;;;;;;;;;;5054469;28;20021;-61
2022/05/06 15:17:24;;;;;;;37.10;35.20;;;;;;;;;;5052055;28;20029;-61